createdAt,value
2019-05-20T00:02:06.379Z,17.00
2019-05-20T00:04:34.827Z,17.00
2019-05-20T00:07:03.675Z,17.10
2019-05-20T00:09:32.194Z,17.20
2019-05-20T00:12:00.638Z,17.10
2019-05-20T00:14:29.130Z,17.00
2019-05-20T00:16:57.653Z,17.10
2019-05-20T00:19:26.150Z,17.00
2019-05-20T00:21:54.769Z,16.90
2019-05-20T00:24:23.230Z,16.90
2019-05-20T00:26:51.762Z,16.90
2019-05-20T00:29:20.323Z,16.90
2019-05-20T00:31:48.778Z,17.00
2019-05-20T00:34:17.340Z,16.90
2019-05-20T00:36:45.791Z,17.00
2019-05-20T00:39:16.071Z,16.90
2019-05-20T00:41:44.555Z,17.00
2019-05-20T00:44:12.971Z,17.10
2019-05-20T00:46:41.464Z,17.10
2019-05-20T00:49:09.929Z,17.10
2019-05-20T00:51:38.451Z,17.10
2019-05-20T00:54:06.943Z,17.00
2019-05-20T00:56:36.203Z,17.00
2019-05-20T00:59:04.904Z,17.00
2019-05-20T01:01:33.436Z,16.90
2019-05-20T01:04:01.928Z,16.90
2019-05-20T01:06:30.499Z,16.80
2019-05-20T01:08:58.962Z,16.80
2019-05-20T01:11:27.392Z,16.80
2019-05-20T01:13:56.015Z,16.60
2019-05-20T01:16:24.456Z,16.70
2019-05-20T01:18:52.956Z,16.70
2019-05-20T01:21:21.402Z,16.70
2019-05-20T01:23:49.984Z,16.70
2019-05-20T01:26:18.606Z,16.70
2019-05-20T01:28:47.153Z,16.80
2019-05-20T01:31:15.723Z,16.80
2019-05-20T01:33:44.237Z,16.90
2019-05-20T01:36:12.998Z,16.90
2019-05-20T01:38:41.541Z,16.80
2019-05-20T01:41:09.984Z,16.80
2019-05-20T01:43:38.511Z,16.80
2019-05-20T01:46:07.264Z,16.80
2019-05-20T01:48:36.038Z,16.80
2019-05-20T01:51:04.518Z,16.80
2019-05-20T01:53:33.106Z,16.80
2019-05-20T01:56:01.743Z,16.80
2019-05-20T01:58:30.309Z,16.90
2019-05-20T02:00:58.761Z,16.90
2019-05-20T02:03:31.625Z,16.90
2019-05-20T02:05:57.453Z,16.80
2019-05-20T02:08:25.948Z,16.80
2019-05-20T02:10:56.593Z,16.60
2019-05-20T02:13:26.165Z,16.70
2019-05-20T02:15:56.482Z,16.70
2019-05-20T02:18:25.102Z,16.60
2019-05-20T02:20:53.572Z,16.70
2019-05-20T02:23:22.026Z,16.60
2019-05-20T02:25:50.602Z,16.70
2019-05-20T02:28:19.172Z,16.60
2019-05-20T02:30:47.624Z,16.50
2019-05-20T02:33:16.074Z,16.50
2019-05-20T02:35:44.677Z,16.60
2019-05-20T02:38:13.201Z,16.50
2019-05-20T02:40:41.836Z,16.50
2019-05-20T02:43:10.406Z,16.50
2019-05-20T02:45:38.862Z,16.50
2019-05-20T02:48:07.335Z,16.50
2019-05-20T02:50:35.880Z,16.60
2019-05-20T02:53:04.352Z,16.50
2019-05-20T02:55:32.820Z,16.50
2019-05-20T02:58:01.341Z,16.50
2019-05-20T03:00:29.854Z,16.50
2019-05-20T03:02:58.341Z,16.40
2019-05-20T03:05:26.857Z,16.30
2019-05-20T03:07:55.527Z,16.40
2019-05-20T03:10:24.048Z,16.50
2019-05-20T03:12:52.576Z,16.50
2019-05-20T03:15:21.067Z,16.50
2019-05-20T03:17:49.524Z,16.50
2019-05-20T03:20:18.057Z,16.60
2019-05-20T03:22:46.543Z,16.50
2019-05-20T03:25:15.071Z,16.50
2019-05-20T03:27:43.553Z,16.50
2019-05-20T03:30:12.106Z,16.40
2019-05-20T03:32:40.547Z,16.50
2019-05-20T03:35:09.102Z,16.50
2019-05-20T03:37:37.544Z,16.60
2019-05-20T03:40:09.102Z,16.60
2019-05-20T03:42:37.602Z,16.60
2019-05-20T03:45:06.109Z,16.60
2019-05-20T03:47:34.561Z,16.50
2019-05-20T03:50:03.062Z,16.60
2019-05-20T03:52:31.549Z,16.60
2019-05-20T03:55:00.081Z,16.50
2019-05-20T03:57:28.472Z,16.60
2019-05-20T03:59:56.946Z,16.50
2019-05-20T04:02:25.583Z,16.40
2019-05-20T04:05:02.028Z,16.40
2019-05-20T04:07:24.279Z,16.30
2019-05-20T04:09:52.858Z,16.30
2019-05-20T04:12:21.512Z,16.40
2019-05-20T04:14:49.936Z,16.40
2019-05-20T04:17:18.533Z,16.40
2019-05-20T04:19:47.161Z,16.40
2019-05-20T04:22:15.613Z,16.30
2019-05-20T04:24:44.306Z,16.30
2019-05-20T04:27:12.924Z,16.30
2019-05-20T04:29:41.417Z,16.40
2019-05-20T04:32:09.905Z,16.40
2019-05-20T04:34:38.862Z,16.50
2019-05-20T04:37:07.402Z,16.50
2019-05-20T04:39:35.922Z,16.60
2019-05-20T04:42:06.688Z,16.60
2019-05-20T04:44:34.769Z,16.60
2019-05-20T04:47:03.591Z,16.50
2019-05-20T04:49:33.788Z,16.50
2019-05-20T04:52:02.500Z,16.40
2019-05-20T04:54:31.036Z,16.40
2019-05-20T04:56:59.627Z,16.40
2019-05-20T04:59:28.149Z,16.30
2019-05-20T05:01:56.661Z,16.30
2019-05-20T05:04:25.109Z,16.30
2019-05-20T05:06:53.599Z,16.30
2019-05-20T05:09:22.139Z,16.40
2019-05-20T05:11:50.623Z,16.40
2019-05-20T05:14:19.142Z,16.30
2019-05-20T05:16:47.628Z,16.30
2019-05-20T05:19:16.168Z,16.30
2019-05-20T05:21:44.708Z,16.40
2019-05-20T05:24:13.307Z,16.50
2019-05-20T05:26:41.764Z,16.40
2019-05-20T05:29:10.255Z,16.40
2019-05-20T05:31:39.053Z,16.40
2019-05-20T05:34:07.512Z,16.30
2019-05-20T05:36:36.064Z,16.30
2019-05-20T05:39:06.476Z,16.30
2019-05-20T05:41:34.985Z,16.30
2019-05-20T05:44:03.474Z,16.30
2019-05-20T05:46:31.936Z,16.20
2019-05-20T05:49:00.466Z,16.20
2019-05-20T05:51:28.967Z,16.30
2019-05-20T05:53:57.402Z,16.20
2019-05-20T05:56:26.151Z,16.20
2019-05-20T05:58:54.648Z,16.20
2019-05-20T06:01:23.154Z,16.10
2019-05-20T06:03:51.670Z,16.20
2019-05-20T06:06:20.127Z,16.30
2019-05-20T06:08:48.605Z,16.20
2019-05-20T06:11:17.095Z,16.30
2019-05-20T06:13:45.529Z,16.30
2019-05-20T06:16:14.028Z,16.20
2019-05-20T06:18:42.673Z,16.10
2019-05-20T06:21:11.280Z,16.20
2019-05-20T06:23:39.768Z,16.20
2019-05-20T06:26:08.224Z,16.10
2019-05-20T06:28:36.755Z,16.20
2019-05-20T06:31:05.202Z,16.30
2019-05-20T06:33:33.747Z,16.30
2019-05-20T06:36:02.384Z,16.30
2019-05-20T06:38:35.186Z,16.30
2019-05-20T06:41:04.750Z,16.30
2019-05-20T06:43:33.222Z,16.30
2019-05-20T06:46:01.694Z,16.40
2019-05-20T06:48:30.362Z,16.50
2019-05-20T06:50:58.964Z,16.60
2019-05-20T06:53:27.503Z,16.60
2019-05-20T06:55:56.140Z,16.70
2019-05-20T06:58:24.734Z,16.60
2019-05-20T07:00:53.243Z,16.60
2019-05-20T07:03:21.703Z,16.60
2019-05-20T07:05:50.201Z,16.60
2019-05-20T07:08:18.661Z,16.60
2019-05-20T07:10:47.218Z,16.60
2019-05-20T07:13:16.455Z,16.60
2019-05-20T07:15:45.079Z,16.70
2019-05-20T07:18:13.752Z,16.80
2019-05-20T07:20:42.273Z,16.80
2019-05-20T07:23:33.172Z,16.80
2019-05-20T07:25:57.670Z,16.90
2019-05-20T07:28:26.243Z,16.70
2019-05-20T07:30:54.767Z,16.70
2019-05-20T07:33:23.316Z,16.80
2019-05-20T07:35:51.940Z,16.90
2019-05-20T07:38:20.621Z,16.90
2019-05-20T07:40:49.201Z,17.10
2019-05-20T07:43:24.833Z,17.20
2019-05-20T07:45:53.427Z,17.20
2019-05-20T07:48:22.155Z,17.20
2019-05-20T07:50:50.740Z,17.10
2019-05-20T07:53:19.258Z,17.20
2019-05-20T07:55:59.355Z,17.30
2019-05-20T07:58:28.028Z,17.30
2019-05-20T08:00:57.179Z,17.40
2019-05-20T08:03:25.989Z,17.40
2019-05-20T08:05:55.840Z,17.40
2019-05-20T08:08:24.412Z,17.40
2019-05-20T08:10:52.990Z,17.40
2019-05-20T08:13:21.555Z,17.40
2019-05-20T08:15:50.011Z,17.20
2019-05-20T08:18:20.275Z,17.20
2019-05-20T08:20:48.720Z,17.20
2019-05-20T08:23:17.199Z,17.10
2019-05-20T08:25:45.779Z,17.10
2019-05-20T08:28:14.263Z,17.20
2019-05-20T08:30:42.794Z,17.30
2019-05-20T08:33:11.751Z,17.30
2019-05-20T08:35:40.301Z,17.40
2019-05-20T08:38:08.857Z,17.60
2019-05-20T08:40:37.372Z,17.50
2019-05-20T08:43:06.080Z,17.40
2019-05-20T08:45:34.553Z,17.40
2019-05-20T08:48:03.071Z,17.50
2019-05-20T08:50:31.639Z,17.40
2019-05-20T08:53:00.094Z,17.30
2019-05-20T08:55:28.575Z,17.40
2019-05-20T08:57:57.090Z,17.50
2019-05-20T09:00:25.855Z,17.40
2019-05-20T09:02:54.576Z,17.50
2019-05-20T09:05:23.092Z,17.40
2019-05-20T09:08:02.100Z,17.50
2019-05-20T09:10:21.727Z,17.60
2019-05-20T09:12:50.193Z,17.60
2019-05-20T09:15:19.319Z,17.60
2019-05-20T09:17:47.835Z,17.50
2019-05-20T09:20:16.486Z,17.50
2019-05-20T09:22:45.016Z,17.50
2019-05-20T09:25:13.744Z,17.40
2019-05-20T09:27:42.629Z,17.50
2019-05-20T09:30:11.063Z,17.70
2019-05-20T09:32:42.806Z,17.70
2019-05-20T09:35:10.549Z,17.80
2019-05-20T09:37:39.131Z,17.80
2019-05-20T09:40:07.624Z,17.90
2019-05-20T09:42:36.127Z,17.90
2019-05-20T09:45:05.818Z,17.90
2019-05-20T09:47:34.348Z,18.00
2019-05-20T09:50:03.027Z,18.00
2019-05-20T09:52:31.673Z,17.90
2019-05-20T09:55:00.203Z,17.70
2019-05-20T09:57:29.531Z,17.70
2019-05-20T09:59:58.103Z,17.70
2019-05-20T10:02:36.182Z,17.70
2019-05-20T10:04:56.816Z,17.60
2019-05-20T10:07:25.291Z,17.70
2019-05-20T10:09:53.734Z,17.70
2019-05-20T10:12:22.888Z,17.70
2019-05-20T10:14:52.852Z,17.50
2019-05-20T10:17:21.472Z,17.60
2019-05-20T10:19:49.975Z,17.60
2019-05-20T10:22:18.422Z,17.70
2019-05-20T10:24:46.980Z,17.60
2019-05-20T10:27:15.379Z,17.60
2019-05-20T10:29:43.859Z,17.60
2019-05-20T10:32:12.390Z,17.60
2019-05-20T10:34:40.912Z,17.80
2019-05-20T10:37:09.416Z,17.80
2019-05-20T10:39:37.916Z,17.70
2019-05-20T10:42:06.529Z,17.50
2019-05-20T10:44:35.122Z,17.60
2019-05-20T10:47:03.823Z,17.50
2019-05-20T10:49:32.392Z,17.60
2019-05-20T10:52:00.864Z,17.60
2019-05-20T10:54:29.485Z,17.50
2019-05-20T10:56:59.794Z,17.70
2019-05-20T10:59:28.357Z,17.80
2019-05-20T11:01:56.920Z,17.60
2019-05-20T11:04:25.434Z,17.40
2019-05-20T11:06:53.901Z,17.60
2019-05-20T11:09:22.566Z,17.80
2019-05-20T11:11:51.080Z,17.80
2019-05-20T11:14:19.662Z,18.00
2019-05-20T11:16:48.442Z,17.90
2019-05-20T11:19:16.982Z,17.90
2019-05-20T11:21:45.628Z,18.00
2019-05-20T11:24:14.291Z,18.10
2019-05-20T11:26:42.736Z,18.10
2019-05-20T11:29:11.459Z,18.10
2019-05-20T11:31:40.054Z,18.10
2019-05-20T11:34:08.537Z,18.20
2019-05-20T11:36:37.124Z,18.30
2019-05-20T11:39:07.432Z,18.30
2019-05-20T11:44:06.120Z,18.10
2019-05-20T11:46:34.632Z,18.10
2019-05-20T11:49:03.097Z,18.10
2019-05-20T11:51:31.643Z,18.20
2019-05-20T11:54:00.156Z,18.10
2019-05-20T11:56:28.617Z,18.10
2019-05-20T11:58:57.119Z,18.00
2019-05-20T12:01:25.727Z,18.10
2019-05-20T12:03:54.190Z,18.20
2019-05-20T12:06:22.662Z,18.10
2019-05-20T12:08:51.175Z,18.20
2019-05-20T12:11:19.878Z,18.30
2019-05-20T12:13:48.316Z,18.20
2019-05-20T12:16:16.880Z,18.20
2019-05-20T12:18:45.386Z,18.20
2019-05-20T12:21:13.804Z,18.20
2019-05-20T12:23:42.422Z,18.10
2019-05-20T12:26:10.951Z,18.10
2019-05-20T12:28:39.403Z,18.00
2019-05-20T12:31:09.095Z,18.10
2019-05-20T12:33:37.626Z,18.20
2019-05-20T12:36:06.131Z,18.20
2019-05-20T12:38:34.656Z,18.20
2019-05-20T12:41:03.401Z,18.10
2019-05-20T12:43:31.871Z,18.00
2019-05-20T12:46:00.405Z,17.90
2019-05-20T12:48:28.909Z,17.90
2019-05-20T12:50:57.464Z,17.70
2019-05-20T12:53:25.997Z,17.60
2019-05-20T12:55:54.529Z,17.50
2019-05-20T12:58:24.752Z,17.60
2019-05-20T13:00:53.220Z,17.60
2019-05-20T13:03:22.397Z,17.90
2019-05-20T13:05:51.976Z,17.80
2019-05-20T13:08:22.388Z,17.90
2019-05-20T13:10:50.685Z,17.80
2019-05-20T13:13:19.313Z,17.80
2019-05-20T13:15:47.884Z,17.90
2019-05-20T13:18:16.378Z,17.80
2019-05-20T13:20:44.839Z,17.80
2019-05-20T13:23:15.300Z,18.00
2019-05-20T13:25:43.731Z,18.00
2019-05-20T13:28:12.192Z,18.20
2019-05-20T13:30:40.715Z,18.30
2019-05-20T13:33:09.380Z,18.20
2019-05-20T13:35:38.043Z,18.30
2019-05-20T13:38:08.359Z,18.40
2019-05-20T13:40:46.539Z,18.50
2019-05-20T13:43:07.105Z,18.70
2019-05-20T13:45:35.735Z,18.50
2019-05-20T13:48:07.726Z,18.60
2019-05-20T13:50:37.018Z,18.50
2019-05-20T13:53:05.626Z,18.40
2019-05-20T13:55:34.142Z,18.50
2019-05-20T13:58:02.812Z,18.50
2019-05-20T14:00:31.537Z,18.40
2019-05-20T14:03:00.103Z,18.50
2019-05-20T14:05:28.869Z,18.50
2019-05-20T14:07:57.391Z,18.40
2019-05-20T14:10:25.950Z,18.40
2019-05-20T14:12:54.579Z,18.20
2019-05-20T14:15:23.102Z,18.20
2019-05-20T14:17:51.593Z,18.00
2019-05-20T14:20:20.604Z,17.90
2019-05-20T14:22:49.105Z,18.00
2019-05-20T14:25:17.550Z,18.00
2019-05-20T14:27:46.129Z,17.90
2019-05-20T14:30:14.811Z,17.90
2019-05-20T14:32:43.288Z,17.80
2019-05-20T14:35:11.985Z,17.80
2019-05-20T14:37:40.580Z,17.80
2019-05-20T14:40:09.236Z,17.80
2019-05-20T14:42:37.693Z,17.90
2019-05-20T14:45:06.472Z,18.00
2019-05-20T14:47:34.991Z,18.10
2019-05-20T14:50:05.054Z,18.20
2019-05-20T14:52:34.363Z,18.10
2019-05-20T14:55:03.003Z,18.20
2019-05-20T14:57:31.477Z,18.20
2019-05-20T15:00:00.051Z,18.20
2019-05-20T15:02:30.957Z,18.20
2019-05-20T15:04:59.954Z,18.20
2019-05-20T15:07:31.013Z,18.20
2019-05-20T15:09:58.788Z,18.20
2019-05-20T15:12:29.575Z,18.10
2019-05-20T15:14:58.491Z,18.10
2019-05-20T15:17:27.336Z,17.90
2019-05-20T15:19:57.553Z,17.80
2019-05-20T15:22:26.034Z,17.70
2019-05-20T15:24:54.622Z,17.60
2019-05-20T15:27:23.325Z,17.70
2019-05-20T15:29:51.896Z,17.90
2019-05-20T15:32:20.427Z,17.70
2019-05-20T15:34:48.918Z,17.60
2019-05-20T15:37:17.494Z,17.50
2019-05-20T15:39:45.994Z,17.70
2019-05-20T15:42:14.650Z,17.60
2019-05-20T15:44:44.140Z,17.50
2019-05-20T15:47:12.608Z,17.50
2019-05-20T15:49:41.240Z,17.50
2019-05-20T15:52:13.707Z,17.40
2019-05-20T15:54:42.344Z,17.50
2019-05-20T15:57:10.859Z,17.50
2019-05-20T15:59:45.941Z,17.60
2019-05-20T16:02:09.605Z,17.60
2019-05-20T16:04:38.048Z,17.60
2019-05-20T16:07:06.503Z,17.40
2019-05-20T16:09:35.001Z,17.40
2019-05-20T16:12:03.664Z,17.30
2019-05-20T16:14:32.083Z,17.40
2019-05-20T16:17:00.592Z,17.30
2019-05-20T16:19:29.084Z,17.20
2019-05-20T16:21:57.548Z,17.20
2019-05-20T16:24:25.987Z,17.10
2019-05-20T16:26:54.563Z,17.00
2019-05-20T16:29:23.243Z,17.00
2019-05-20T16:31:51.791Z,17.10
2019-05-20T16:34:20.411Z,17.10
2019-05-20T16:36:49.040Z,17.30
2019-05-20T16:39:17.623Z,17.50
2019-05-20T16:41:46.270Z,17.60
2019-05-20T16:44:14.746Z,17.70
2019-05-20T16:46:43.428Z,17.70
2019-05-20T16:49:11.885Z,17.70
2019-05-20T16:51:40.630Z,17.60
2019-05-20T16:54:10.729Z,17.30
2019-05-20T16:56:39.520Z,17.30
2019-05-20T16:59:09.271Z,17.30
2019-05-20T17:01:45.934Z,17.20
2019-05-20T17:04:07.906Z,17.20
2019-05-20T17:06:36.594Z,17.30
2019-05-20T17:09:05.762Z,17.50
2019-05-20T17:11:34.432Z,17.30
2019-05-20T17:14:03.063Z,17.40
2019-05-20T17:16:31.636Z,17.40
2019-05-20T17:19:00.115Z,17.40
2019-05-20T17:21:28.591Z,17.50
2019-05-20T17:23:58.693Z,17.20
2019-05-20T17:26:27.169Z,17.10
2019-05-20T17:28:55.678Z,17.00
2019-05-20T17:31:26.629Z,17.20
2019-05-20T17:33:54.405Z,17.10
2019-05-20T17:36:22.921Z,17.00
2019-05-20T17:38:51.470Z,17.10
2019-05-20T17:41:23.184Z,17.10
2019-05-20T17:43:51.762Z,17.00
2019-05-20T17:46:20.330Z,17.00
2019-05-20T17:48:48.797Z,17.00
2019-05-20T17:51:17.268Z,16.80
2019-05-20T17:53:45.920Z,16.80
2019-05-20T17:56:15.400Z,16.70
2019-05-20T17:58:45.788Z,16.90
2019-05-20T18:01:16.075Z,16.90
2019-05-20T18:03:44.586Z,16.80
2019-05-20T18:06:14.028Z,16.80
2019-05-20T18:08:44.150Z,16.80
2019-05-20T18:11:12.818Z,16.80
2019-05-20T18:13:41.488Z,16.90
2019-05-20T18:16:10.544Z,16.80
2019-05-20T18:18:39.058Z,17.00
2019-05-20T18:21:07.554Z,17.00
2019-05-20T18:23:37.437Z,17.00
2019-05-20T18:26:06.009Z,17.00
2019-05-20T18:28:34.499Z,16.90
2019-05-20T18:31:03.145Z,16.90
2019-05-20T18:33:32.119Z,16.70
2019-05-20T18:36:00.667Z,16.60
2019-05-20T18:38:29.223Z,16.60
2019-05-20T18:40:57.782Z,16.70
2019-05-20T18:43:26.288Z,16.70
2019-05-20T18:45:54.842Z,16.70
2019-05-20T18:48:23.440Z,16.70
2019-05-20T18:50:51.884Z,16.70
2019-05-20T18:53:20.798Z,16.80
2019-05-20T18:55:49.544Z,16.80
2019-05-20T18:58:18.147Z,16.90
2019-05-20T19:00:46.734Z,16.80
2019-05-20T19:03:15.279Z,16.80
2019-05-20T19:05:43.868Z,16.90
2019-05-20T19:08:12.564Z,16.80
2019-05-20T19:10:41.270Z,16.90
2019-05-20T19:13:10.197Z,16.90
2019-05-20T19:15:38.756Z,16.80
2019-05-20T19:18:08.990Z,16.90
2019-05-20T19:20:37.508Z,16.70
2019-05-20T19:23:07.316Z,16.70
2019-05-20T19:25:38.061Z,16.80
2019-05-20T19:28:06.146Z,16.70
2019-05-20T19:30:34.662Z,16.60
2019-05-20T19:33:03.172Z,16.50
2019-05-20T19:35:31.637Z,16.60
2019-05-20T19:38:00.070Z,16.60
2019-05-20T19:40:28.688Z,16.60
2019-05-20T19:42:57.237Z,16.60
2019-05-20T19:45:25.734Z,16.40
2019-05-20T19:47:54.183Z,16.30
2019-05-20T19:50:22.684Z,16.30
2019-05-20T19:52:51.189Z,16.40
2019-05-20T19:55:19.733Z,16.50
2019-05-20T19:57:48.202Z,16.60
2019-05-20T20:00:16.903Z,16.60
2019-05-20T20:02:45.420Z,16.80
2019-05-20T20:05:13.951Z,16.60
2019-05-20T20:07:42.630Z,16.60
2019-05-20T20:10:11.365Z,16.60
2019-05-20T20:12:40.100Z,16.60
2019-05-20T20:15:08.666Z,16.60
2019-05-20T20:17:37.219Z,16.60
2019-05-20T20:20:06.204Z,16.50
2019-05-20T20:22:34.651Z,16.40
2019-05-20T20:25:03.510Z,16.50
2019-05-20T20:27:32.118Z,16.30
2019-05-20T20:30:00.581Z,16.50
2019-05-20T20:32:38.098Z,16.50
2019-05-20T20:34:59.482Z,16.50
2019-05-20T20:37:27.952Z,16.50
2019-05-20T20:39:56.423Z,16.50
2019-05-20T20:42:25.034Z,16.40
2019-05-20T20:44:53.617Z,16.20
2019-05-20T20:47:22.114Z,16.30
2019-05-20T20:49:50.738Z,16.20
2019-05-20T20:52:19.195Z,16.30
2019-05-20T20:54:47.699Z,16.40
2019-05-20T20:57:16.151Z,16.60
2019-05-20T20:59:44.589Z,16.60
2019-05-20T21:02:13.075Z,16.60
2019-05-20T21:04:41.655Z,16.40
2019-05-20T21:07:10.335Z,16.50
2019-05-20T21:09:38.791Z,16.50
2019-05-20T21:12:07.282Z,16.40
2019-05-20T21:14:35.786Z,16.30
2019-05-20T21:17:04.518Z,16.10
2019-05-20T21:19:33.122Z,15.90
2019-05-20T21:22:01.648Z,16.00
2019-05-20T21:24:30.147Z,15.90
2019-05-20T21:26:58.592Z,15.90
2019-05-20T21:29:27.232Z,15.90
2019-05-20T21:31:55.761Z,15.90
2019-05-20T21:34:24.176Z,15.90
2019-05-20T21:36:52.688Z,16.00
2019-05-20T21:39:21.170Z,16.00
2019-05-20T21:41:49.611Z,16.20
2019-05-20T21:44:18.086Z,16.20
2019-05-20T21:46:46.760Z,16.20
2019-05-20T21:49:15.198Z,16.10
2019-05-20T21:51:43.682Z,16.20
2019-05-20T21:54:12.283Z,16.30
2019-05-20T21:56:40.874Z,16.20
2019-05-20T21:59:09.379Z,16.20
2019-05-20T22:01:37.967Z,16.10
2019-05-20T22:04:06.550Z,16.20
2019-05-20T22:06:35.119Z,16.20
2019-05-20T22:09:04.514Z,16.20
2019-05-20T22:11:33.015Z,16.20
2019-05-20T22:14:01.607Z,16.40
2019-05-20T22:16:30.593Z,16.30
2019-05-20T22:18:59.033Z,16.40
2019-05-20T22:21:29.174Z,16.40
2019-05-20T22:23:59.343Z,16.40
2019-05-20T22:26:27.799Z,16.10
2019-05-20T22:28:56.299Z,16.20
2019-05-20T22:31:24.738Z,16.10
2019-05-20T22:33:53.727Z,16.10
2019-05-20T22:36:22.169Z,16.00
2019-05-20T22:38:50.782Z,15.80
2019-05-20T22:41:19.334Z,15.70
2019-05-20T22:43:47.951Z,15.60
2019-05-20T22:46:16.386Z,15.50
2019-05-20T22:48:45.052Z,15.50
2019-05-20T22:51:13.637Z,15.50
2019-05-20T22:53:42.098Z,15.50
2019-05-20T22:56:10.600Z,15.30
2019-05-20T22:58:39.043Z,15.20
2019-05-20T23:01:07.897Z,15.20
2019-05-20T23:03:36.534Z,15.20
2019-05-20T23:06:05.204Z,15.20
2019-05-20T23:08:33.650Z,15.10
2019-05-20T23:11:02.101Z,15.00
2019-05-20T23:13:30.755Z,15.00
2019-05-20T23:15:59.189Z,15.10
2019-05-20T23:18:27.656Z,15.20
2019-05-20T23:20:56.149Z,15.30
2019-05-20T23:23:24.595Z,15.40
2019-05-20T23:25:53.197Z,15.40
2019-05-20T23:28:21.846Z,15.40
2019-05-20T23:30:50.395Z,15.30
2019-05-20T23:33:18.911Z,15.40
2019-05-20T23:35:47.438Z,15.20
2019-05-20T23:38:15.936Z,15.30
2019-05-20T23:40:44.419Z,15.20
2019-05-20T23:43:12.934Z,15.30
2019-05-20T23:45:41.665Z,15.40
2019-05-20T23:48:10.125Z,15.40
2019-05-20T23:50:38.725Z,15.40
2019-05-20T23:53:07.644Z,15.30
2019-05-20T23:55:36.100Z,15.10
2019-05-20T23:58:04.930Z,15.10
